Time,TemperatureF,DewpointF,PressureIn,WindDirection,WindDirectionDegrees,WindSpeedMPH,WindSpeedGustMPH,Humidity,HourlyPrecipIn,Conditions,Clouds,dailyrainin,SoftwareType,DateUTC
2013-04-21 00:02:00,35.8,21.0,30.21,West,262,7.0,12.0,55,0.00,,,0.00,weatherlink.com 1.10,2013-04-21 04:02:00,
2013-04-21 00:17:00,35.2,21.0,30.22,West,273,3.0,21.0,56,0.00,,,0.00,weatherlink.com 1.10,2013-04-21 04:17:00,
2013-04-21 00:32:00,34.3,20.0,30.23,WSW,248,11.0,13.0,56,0.00,,,0.00,weatherlink.com 1.10,2013-04-21 04:32:00,
2013-04-21 00:47:00,34.1,20.0,30.25,WSW,256,13.0,15.0,56,0.00,,,0.00,weatherlink.com 1.10,2013-04-21 04:47:00,
2013-04-21 01:02:00,33.8,19.0,30.25,West,264,12.0,12.0,55,0.00,,,0.00,weatherlink.com 1.10,2013-04-21 05:02:00,
2013-04-21 01:17:00,33.5,19.0,30.25,NW,315,4.0,16.0,55,0.00,,,0.00,weatherlink.com 1.10,2013-04-21 05:17:00,
2013-04-21 01:32:00,32.9,19.0,30.26,West,281,1.0,14.0,56,0.00,,,0.00,weatherlink.com 1.10,2013-04-21 05:32:00,
2013-04-21 01:47:00,32.5,19.0,30.26,WNW,302,6.0,7.0,57,0.00,,,0.00,weatherlink.com 1.10,2013-04-21 05:47:00,
2013-04-21 02:03:00,32.5,19.0,30.26,WNW,297,8.0,11.0,59,0.00,,,0.00,weatherlink.com 1.10,2013-04-21 06:03:00,
2013-04-21 02:18:00,32.4,19.0,30.27,West,276,3.0,10.0,57,0.00,,,0.00,weatherlink.com 1.10,2013-04-21 06:18:00,
2013-04-21 02:33:00,32.0,19.0,30.28,WNW,285,2.0,7.0,58,0.00,,,0.00,weatherlink.com 1.10,2013-04-21 06:33:00,
2013-04-21 02:48:00,31.6,19.0,30.28,West,264,4.0,7.0,59,0.00,,,0.00,weatherlink.com 1.10,2013-04-21 06:48:00,
2013-04-21 03:03:00,31.8,18.0,30.29,WNW,287,3.0,9.0,57,0.00,,,0.00,weatherlink.com 1.10,2013-04-21 07:03:00,
2013-04-21 03:18:00,31.3,18.0,30.30,WNW,292,2.0,4.0,59,0.00,,,0.00,weatherlink.com 1.10,2013-04-21 07:18:00,
2013-04-21 03:33:00,31.3,18.0,30.31,West,278,2.0,7.0,59,0.00,,,0.00,weatherlink.com 1.10,2013-04-21 07:33:00,
2013-04-21 03:48:00,31.1,19.0,30.31,WNW,301,5.0,8.0,60,0.00,,,0.00,weatherlink.com 1.10,2013-04-21 07:48:00,
2013-04-21 04:03:00,31.1,19.0,30.31,WNW,283,2.0,6.0,60,0.00,,,0.00,weatherlink.com 1.10,2013-04-21 08:03:00,
2013-04-21 04:18:00,31.0,19.0,30.33,WSW,253,0.0,8.0,61,0.00,,,0.00,weatherlink.com 1.10,2013-04-21 08:18:00,
2013-04-21 04:33:00,30.7,19.0,30.33,WNW,284,0.0,3.0,63,0.00,,,0.00,weatherlink.com 1.10,2013-04-21 08:33:00,
2013-04-21 04:48:00,30.2,20.0,30.34,SSW,200,1.0,4.0,65,0.00,,,0.00,weatherlink.com 1.10,2013-04-21 08:48:00,
2013-04-21 05:03:00,30.1,20.0,30.35,West,264,1.0,1.0,66,0.00,,,0.00,weatherlink.com 1.10,2013-04-21 09:03:00,
2013-04-21 05:18:00,30.6,20.0,30.36,West,276,3.0,7.0,65,0.00,,,0.00,weatherlink.com 1.10,2013-04-21 09:18:00,
2013-04-21 05:33:00,31.2,20.0,30.36,West,269,3.0,5.0,64,0.00,,,0.00,weatherlink.com 1.10,2013-04-21 09:33:00,
2013-04-21 05:48:00,31.2,20.0,30.38,West,281,1.0,9.0,64,0.00,,,0.00,weatherlink.com 1.10,2013-04-21 09:48:00,
2013-04-21 06:03:00,30.8,20.0,30.39,WNW,283,4.0,11.0,64,0.00,,,0.00,weatherlink.com 1.10,2013-04-21 10:03:00,
2013-04-21 06:18:00,30.5,20.0,30.40,West,281,4.0,8.0,66,0.00,,,0.00,weatherlink.com 1.10,2013-04-21 10:18:00,
2013-04-21 06:33:00,30.5,20.0,30.41,WNW,302,1.0,8.0,66,0.00,,,0.00,weatherlink.com 1.10,2013-04-21 10:33:00,
2013-04-21 06:48:00,30.8,20.0,30.43,WSW,250,3.0,7.0,64,0.00,,,0.00,weatherlink.com 1.10,2013-04-21 10:48:00,
2013-04-21 07:03:00,31.5,21.0,30.43,West,278,1.0,8.0,65,0.00,,,0.00,weatherlink.com 1.10,2013-04-21 11:03:00,
2013-04-21 07:19:00,32.0,20.0,30.45,WNW,287,3.0,8.0,61,0.00,,,0.00,weatherlink.com 1.10,2013-04-21 11:19:00,
2013-04-21 07:34:00,33.2,21.0,30.45,NNE,23,2.0,8.0,60,0.00,,,0.00,weatherlink.com 1.10,2013-04-21 11:34:00,
2013-04-21 07:49:00,34.1,20.0,30.46,NW,324,3.0,11.0,57,0.00,,,0.00,weatherlink.com 1.10,2013-04-21 11:49:00,
2013-04-21 08:04:00,34.7,20.0,30.47,WNW,290,6.0,15.0,55,0.00,,,0.00,weatherlink.com 1.10,2013-04-21 12:04:00,
2013-04-21 08:19:00,35.1,20.0,30.47,North,353,4.0,11.0,54,0.00,,,0.00,weatherlink.com 1.10,2013-04-21 12:19:00,
2013-04-21 08:34:00,35.9,20.0,30.48,WNW,298,4.0,8.0,53,0.00,,,0.00,weatherlink.com 1.10,2013-04-21 12:34:00,
2013-04-21 08:49:00,36.3,20.0,30.49,West,281,4.0,11.0,51,0.00,,,0.00,weatherlink.com 1.10,2013-04-21 12:49:00,
2013-04-21 09:04:00,37.3,21.0,30.49,NNW,346,0.0,10.0,51,0.00,,,0.00,weatherlink.com 1.10,2013-04-21 13:04:00,
2013-04-21 09:19:00,37.7,20.0,30.50,North,11,4.0,7.0,49,0.00,,,0.00,weatherlink.com 1.10,2013-04-21 13:19:00,
2013-04-21 09:34:00,37.9,20.0,30.50,West,278,4.0,11.0,49,0.00,,,0.00,weatherlink.com 1.10,2013-04-21 13:34:00,
2013-04-21 09:49:00,39.0,22.0,30.50,West,259,5.0,8.0,50,0.00,,,0.00,weatherlink.com 1.10,2013-04-21 13:49:00,
2013-04-21 10:04:00,39.7,22.0,30.51,ENE,61,2.0,11.0,49,0.00,,,0.00,weatherlink.com 1.10,2013-04-21 14:04:00,
2013-04-21 10:19:00,38.8,19.0,30.52,SW,230,4.0,12.0,46,0.00,,,0.00,weatherlink.com 1.10,2013-04-21 14:19:00,
2013-04-21 10:34:00,39.5,20.0,30.51,WSW,255,6.0,11.0,46,0.00,,,0.00,weatherlink.com 1.10,2013-04-21 14:34:00,
2013-04-21 10:49:00,40.1,20.0,30.52,West,271,9.0,9.0,44,0.00,,,0.00,weatherlink.com 1.10,2013-04-21 14:49:00,
2013-04-21 11:04:00,40.4,21.0,30.52,North,357,2.0,14.0,47,0.00,,,0.00,weatherlink.com 1.10,2013-04-21 15:04:00,
2013-04-21 11:19:00,40.8,20.0,30.53,WNW,297,7.0,17.0,43,0.00,,,0.00,weatherlink.com 1.10,2013-04-21 15:19:00,
2013-04-21 11:34:00,41.6,18.0,30.54,WNW,288,5.0,16.0,39,0.00,,,0.00,weatherlink.com 1.10,2013-04-21 15:34:00,
2013-04-21 11:49:00,42.2,19.0,30.54,WNW,291,11.0,14.0,40,0.00,,,0.00,weatherlink.com 1.10,2013-04-21 15:49:00,
2013-04-21 12:04:00,42.5,19.0,30.53,West,276,6.0,10.0,39,0.00,,,0.00,weatherlink.com 1.10,2013-04-21 16:04:00,
2013-04-21 12:19:00,43.5,20.0,30.54,West,259,2.0,13.0,39,0.00,,,0.00,weatherlink.com 1.10,2013-04-21 16:19:00,
2013-04-21 12:34:00,44.3,19.0,30.54,WNW,291,1.0,10.0,36,0.00,,,0.00,weatherlink.com 1.10,2013-04-21 16:34:00,
2013-04-21 12:49:00,44.8,19.0,30.53,NNE,18,1.0,10.0,36,0.00,,,0.00,weatherlink.com 1.10,2013-04-21 16:49:00,
2013-04-21 13:04:00,44.7,19.0,30.52,NW,309,5.0,12.0,36,0.00,,,0.00,weatherlink.com 1.10,2013-04-21 17:04:00,
2013-04-21 13:19:00,46.1,20.0,30.52,WSW,256,6.0,9.0,36,0.00,,,0.00,weatherlink.com 1.10,2013-04-21 17:19:00,
2013-04-21 13:34:00,46.1,20.0,30.52,NNW,339,2.0,11.0,35,0.00,,,0.00,weatherlink.com 1.10,2013-04-21 17:34:00,
2013-04-21 13:49:00,46.6,21.0,30.53,West,279,3.0,10.0,36,0.00,,,0.00,weatherlink.com 1.10,2013-04-21 17:49:00,
2013-04-21 14:05:00,47.8,20.0,30.53,NE,36,3.0,9.0,33,0.00,,,0.00,weatherlink.com 1.10,2013-04-21 18:05:00,
2013-04-21 14:20:00,47.8,19.0,30.53,North,354,4.0,8.0,32,0.00,,,0.00,weatherlink.com 1.10,2013-04-21 18:20:00,
2013-04-21 14:35:00,48.1,19.0,30.53,West,261,4.0,7.0,31,0.00,,,0.00,weatherlink.com 1.10,2013-04-21 18:35:00,
2013-04-21 14:50:00,49.0,20.0,30.53,ENE,64,3.0,11.0,32,0.00,,,0.00,weatherlink.com 1.10,2013-04-21 18:50:00,
2013-04-21 15:05:00,48.9,17.0,30.52,ENE,68,7.0,7.0,28,0.00,,,0.00,weatherlink.com 1.10,2013-04-21 19:05:00,
2013-04-21 15:20:00,49.3,17.0,30.53,WNW,290,4.0,6.0,28,0.00,,,0.00,weatherlink.com 1.10,2013-04-21 19:20:00,
2013-04-21 15:35:00,49.1,17.0,30.53,West,269,2.0,9.0,28,0.00,,,0.00,weatherlink.com 1.10,2013-04-21 19:35:00,
2013-04-21 15:50:00,49.3,22.0,30.53,West,279,1.0,9.0,34,0.00,,,0.00,weatherlink.com 1.10,2013-04-21 19:50:00,
2013-04-21 16:05:00,49.6,20.0,30.53,West,267,8.0,10.0,31,0.00,,,0.00,weatherlink.com 1.10,2013-04-21 20:05:00,
2013-04-21 16:20:00,49.8,19.0,30.53,East,91,1.0,6.0,30,0.00,,,0.00,weatherlink.com 1.10,2013-04-21 20:20:00,
2013-04-21 16:35:00,49.7,18.0,30.53,NW,318,1.0,8.0,28,0.00,,,0.00,weatherlink.com 1.10,2013-04-21 20:35:00,
2013-04-21 16:50:00,50.4,17.0,30.53,NW,321,5.0,5.0,26,0.00,,,0.00,weatherlink.com 1.10,2013-04-21 20:50:00,
2013-04-21 17:05:00,50.7,18.0,30.53,NNW,340,2.0,5.0,28,0.00,,,0.00,weatherlink.com 1.10,2013-04-21 21:05:00,
2013-04-21 17:20:00,50.5,15.0,30.54,NNW,332,5.0,5.0,24,0.00,,,0.00,weatherlink.com 1.10,2013-04-21 21:20:00,
2013-04-21 17:35:00,50.4,17.0,30.54,NW,311,3.0,4.0,26,0.00,,,0.00,weatherlink.com 1.10,2013-04-21 21:35:00,
2013-04-21 17:51:00,49.6,13.0,30.55,WNW,294,1.0,8.0,23,0.00,,,0.00,weatherlink.com 1.10,2013-04-21 21:51:00,
2013-04-21 18:05:00,49.3,14.0,30.55,NW,314,1.0,6.0,24,0.00,,,0.00,weatherlink.com 1.10,2013-04-21 22:05:00,
2013-04-21 18:20:00,48.8,14.0,30.56,WNW,291,1.0,6.0,25,0.00,,,0.00,weatherlink.com 1.10,2013-04-21 22:20:00,
2013-04-21 18:35:00,48.7,17.0,30.56,West,262,0.0,3.0,28,0.00,,,0.00,weatherlink.com 1.10,2013-04-21 22:35:00,
2013-04-21 18:50:00,47.2,15.0,30.57,West,276,2.0,5.0,28,0.00,,,0.00,weatherlink.com 1.10,2013-04-21 22:50:00,
2013-04-21 19:05:00,46.1,15.0,30.57,NW,314,1.0,3.0,29,0.00,,,0.00,weatherlink.com 1.10,2013-04-21 23:05:00,
2013-04-21 19:20:00,44.6,15.0,30.58,NNE,25,0.0,2.0,30,0.00,,,0.00,weatherlink.com 1.10,2013-04-21 23:20:00,
2013-04-21 19:35:00,42.5,20.0,30.59,South,176,1.0,1.0,41,0.00,,,0.00,weatherlink.com 1.10,2013-04-21 23:35:00,
2013-04-21 19:50:00,39.6,19.0,30.60,South,172,0.0,1.0,44,0.00,,,0.00,weatherlink.com 1.10,2013-04-21 23:50:00,
2013-04-21 20:05:00,37.4,21.0,30.60,South,172,0.0,1.0,51,0.00,,,0.00,weatherlink.com 1.10,2013-04-22 00:05:00,
2013-04-21 20:20:00,35.3,22.0,30.61,SSW,197,0.0,0.0,59,0.00,,,0.00,weatherlink.com 1.10,2013-04-22 00:20:00,
2013-04-21 20:35:00,33.9,24.0,30.62,SSW,197,0.0,0.0,67,0.00,,,0.00,weatherlink.com 1.10,2013-04-22 00:35:00,
2013-04-21 20:50:00,32.5,24.0,30.63,SSW,197,0.0,0.0,72,0.00,,,0.00,weatherlink.com 1.10,2013-04-22 00:50:00,
2013-04-21 21:05:00,31.2,24.0,30.63,SSW,197,0.0,0.0,74,0.00,,,0.00,weatherlink.com 1.10,2013-04-22 01:05:00,
2013-04-21 21:20:00,30.0,24.0,30.64,SSW,197,0.0,0.0,78,0.00,,,0.00,weatherlink.com 1.10,2013-04-22 01:20:00,
2013-04-21 21:36:00,29.0,24.0,30.64,SSW,197,0.0,0.0,80,0.00,,,0.00,weatherlink.com 1.10,2013-04-22 01:36:00,
2013-04-21 21:51:00,28.7,24.0,30.65,SSW,197,0.0,0.0,82,0.00,,,0.00,weatherlink.com 1.10,2013-04-22 01:51:00,
2013-04-21 22:06:00,28.9,23.0,30.66,ESE,109,0.0,7.0,79,0.00,,,0.00,weatherlink.com 1.10,2013-04-22 02:06:00,
2013-04-21 22:21:00,29.1,23.0,30.66,WSW,238,0.0,1.0,79,0.00,,,0.00,weatherlink.com 1.10,2013-04-22 02:21:00,
2013-04-21 22:36:00,28.4,23.0,30.66,South,176,0.0,2.0,79,0.00,,,0.00,weatherlink.com 1.10,2013-04-22 02:36:00,
2013-04-21 22:51:00,28.0,23.0,30.67,South,176,0.0,0.0,82,0.00,,,0.00,weatherlink.com 1.10,2013-04-22 02:51:00,
2013-04-21 23:06:00,27.6,23.0,30.67,SSW,200,0.0,0.0,82,0.00,,,0.00,weatherlink.com 1.10,2013-04-22 03:06:00,
2013-04-21 23:21:00,27.0,23.0,30.67,SSW,200,0.0,0.0,83,0.00,,,0.00,weatherlink.com 1.10,2013-04-22 03:21:00,
2013-04-21 23:36:00,26.5,23.0,30.67,SSW,200,0.0,0.0,85,0.00,,,0.00,weatherlink.com 1.10,2013-04-22 03:36:00,
2013-04-21 23:51:00,27.5,22.0,30.67,SW,225,0.0,1.0,81,0.00,,,0.00,weatherlink.com 1.10,2013-04-22 03:51:00,